sensor_id;sensor_type;location;lat;lon;timestamp;P1;durP1;ratioP1;P2;durP2;ratioP2
8532;SDS011;4304;53.876;10.662;2023-08-30T00:02:23;4.22;;;1.65;;
8532;SDS011;4304;53.876;10.662;2023-08-30T00:04:48;5.03;;;1.88;;
8532;SDS011;4304;53.876;10.662;2023-08-30T00:07:14;5.30;;;1.85;;
8532;SDS011;4304;53.876;10.662;2023-08-30T00:09:39;4.20;;;1.73;;
8532;SDS011;4304;53.876;10.662;2023-08-30T00:12:05;3.22;;;1.17;;
8532;SDS011;4304;53.876;10.662;2023-08-30T00:14:30;3.17;;;1.33;;
8532;SDS011;4304;53.876;10.662;2023-08-30T00:16:56;3.63;;;1.25;;
8532;SDS011;4304;53.876;10.662;2023-08-30T00:19:22;4.10;;;1.92;;
8532;SDS011;4304;53.876;10.662;2023-08-30T00:21:47;3.17;;;1.10;;
8532;SDS011;4304;53.876;10.662;2023-08-30T00:24:12;3.63;;;1.53;;
8532;SDS011;4304;53.876;10.662;2023-08-30T00:26:38;2.50;;;1.13;;
8532;SDS011;4304;53.876;10.662;2023-08-30T00:29:04;3.60;;;1.77;;
8532;SDS011;4304;53.876;10.662;2023-08-30T00:31:29;3.92;;;1.90;;
8532;SDS011;4304;53.876;10.662;2023-08-30T00:33:54;4.65;;;1.85;;
8532;SDS011;4304;53.876;10.662;2023-08-30T00:36:20;3.75;;;1.70;;
8532;SDS011;4304;53.876;10.662;2023-08-30T00:38:45;3.42;;;1.33;;
8532;SDS011;4304;53.876;10.662;2023-08-30T00:41:11;4.78;;;1.90;;
8532;SDS011;4304;53.876;10.662;2023-08-30T00:43:36;4.07;;;1.55;;
8532;SDS011;4304;53.876;10.662;2023-08-30T00:46:01;3.22;;;1.50;;
8532;SDS011;4304;53.876;10.662;2023-08-30T00:48:27;4.05;;;1.67;;
8532;SDS011;4304;53.876;10.662;2023-08-30T00:50:53;3.80;;;1.80;;
8532;SDS011;4304;53.876;10.662;2023-08-30T00:53:18;6.05;;;2.20;;
8532;SDS011;4304;53.876;10.662;2023-08-30T00:55:44;4.28;;;1.60;;
8532;SDS011;4304;53.876;10.662;2023-08-30T00:58:10;4.88;;;1.98;;
8532;SDS011;4304;53.876;10.662;2023-08-30T01:00:36;4.65;;;1.90;;
8532;SDS011;4304;53.876;10.662;2023-08-30T01:03:02;5.93;;;1.75;;
8532;SDS011;4304;53.876;10.662;2023-08-30T01:05:30;4.13;;;1.55;;
8532;SDS011;4304;53.876;10.662;2023-08-30T01:07:55;4.15;;;1.60;;
8532;SDS011;4304;53.876;10.662;2023-08-30T01:10:21;3.60;;;2.00;;
8532;SDS011;4304;53.876;10.662;2023-08-30T01:12:56;4.57;;;1.90;;
8532;SDS011;4304;53.876;10.662;2023-08-30T01:15:29;4.32;;;1.88;;
8532;SDS011;4304;53.876;10.662;2023-08-30T01:17:55;4.22;;;1.65;;
8532;SDS011;4304;53.876;10.662;2023-08-30T01:20:22;3.30;;;1.70;;
8532;SDS011;4304;53.876;10.662;2023-08-30T01:28:29;5.25;;;2.28;;
8532;SDS011;4304;53.876;10.662;2023-08-30T01:30:56;3.20;;;1.23;;
8532;SDS011;4304;53.876;10.662;2023-08-30T01:33:23;4.63;;;2.15;;
8532;SDS011;4304;53.876;10.662;2023-08-30T01:35:51;3.33;;;1.50;;
8532;SDS011;4304;53.876;10.662;2023-08-30T01:38:18;4.57;;;2.22;;
8532;SDS011;4304;53.876;10.662;2023-08-30T01:40:44;4.53;;;1.98;;
8532;SDS011;4304;53.876;10.662;2023-08-30T01:43:10;4.43;;;2.10;;
8532;SDS011;4304;53.876;10.662;2023-08-30T01:45:38;4.63;;;1.90;;
8532;SDS011;4304;53.876;10.662;2023-08-30T01:48:06;5.00;;;2.33;;
8532;SDS011;4304;53.876;10.662;2023-08-30T01:50:33;6.15;;;1.88;;
8532;SDS011;4304;53.876;10.662;2023-08-30T01:52:59;5.30;;;2.00;;
8532;SDS011;4304;53.876;10.662;2023-08-30T01:55:25;4.53;;;2.05;;
8532;SDS011;4304;53.876;10.662;2023-08-30T01:57:53;9.18;;;1.48;;
8532;SDS011;4304;53.876;10.662;2023-08-30T02:00:18;4.20;;;1.58;;
8532;SDS011;4304;53.876;10.662;2023-08-30T02:02:44;3.10;;;1.27;;
8532;SDS011;4304;53.876;10.662;2023-08-30T02:05:09;3.35;;;1.35;;
8532;SDS011;4304;53.876;10.662;2023-08-30T02:10:12;4.68;;;2.35;;
8532;SDS011;4304;53.876;10.662;2023-08-30T02:12:47;4.57;;;1.95;;
8532;SDS011;4304;53.876;10.662;2023-08-30T02:15:14;5.45;;;2.53;;
8532;SDS011;4304;53.876;10.662;2023-08-30T02:17:42;2.92;;;1.05;;
8532;SDS011;4304;53.876;10.662;2023-08-30T02:20:08;2.75;;;1.02;;
8532;SDS011;4304;53.876;10.662;2023-08-30T02:22:34;4.75;;;2.00;;
8532;SDS011;4304;53.876;10.662;2023-08-30T02:25:00;3.72;;;1.55;;
8532;SDS011;4304;53.876;10.662;2023-08-30T02:27:29;2.97;;;1.25;;
8532;SDS011;4304;53.876;10.662;2023-08-30T02:29:58;3.35;;;2.15;;
8532;SDS011;4304;53.876;10.662;2023-08-30T02:32:24;4.72;;;2.30;;
8532;SDS011;4304;53.876;10.662;2023-08-30T02:34:50;3.67;;;1.73;;
8532;SDS011;4304;53.876;10.662;2023-08-30T02:37:16;5.30;;;1.50;;
8532;SDS011;4304;53.876;10.662;2023-08-30T02:39:42;3.92;;;2.03;;
8532;SDS011;4304;53.876;10.662;2023-08-30T02:42:07;3.38;;;1.52;;
8532;SDS011;4304;53.876;10.662;2023-08-30T02:44:32;4.22;;;2.30;;
8532;SDS011;4304;53.876;10.662;2023-08-30T02:46:58;4.00;;;1.40;;
8532;SDS011;4304;53.876;10.662;2023-08-30T02:49:23;5.10;;;2.70;;
8532;SDS011;4304;53.876;10.662;2023-08-30T02:51:48;6.78;;;1.73;;
8532;SDS011;4304;53.876;10.662;2023-08-30T02:54:14;3.40;;;1.55;;
8532;SDS011;4304;53.876;10.662;2023-08-30T02:56:40;4.70;;;2.45;;
8532;SDS011;4304;53.876;10.662;2023-08-30T02:59:08;5.10;;;2.03;;
8532;SDS011;4304;53.876;10.662;2023-08-30T03:01:33;5.72;;;2.55;;
8532;SDS011;4304;53.876;10.662;2023-08-30T03:03:59;4.18;;;1.63;;
8532;SDS011;4304;53.876;10.662;2023-08-30T03:06:24;7.93;;;2.83;;
8532;SDS011;4304;53.876;10.662;2023-08-30T03:08:49;4.53;;;1.90;;
8532;SDS011;4304;53.876;10.662;2023-08-30T03:11:16;4.20;;;1.80;;
8532;SDS011;4304;53.876;10.662;2023-08-30T03:13:41;4.78;;;1.98;;
8532;SDS011;4304;53.876;10.662;2023-08-30T03:16:14;3.28;;;1.45;;
8532;SDS011;4304;53.876;10.662;2023-08-30T03:18:40;3.85;;;1.77;;
8532;SDS011;4304;53.876;10.662;2023-08-30T03:21:06;7.80;;;2.58;;
8532;SDS011;4304;53.876;10.662;2023-08-30T03:23:33;3.70;;;1.85;;
8532;SDS011;4304;53.876;10.662;2023-08-30T03:25:59;5.03;;;2.47;;
8532;SDS011;4304;53.876;10.662;2023-08-30T03:28:25;5.28;;;2.15;;
8532;SDS011;4304;53.876;10.662;2023-08-30T03:30:52;4.40;;;2.33;;
8532;SDS011;4304;53.876;10.662;2023-08-30T03:33:17;4.32;;;1.55;;
8532;SDS011;4304;53.876;10.662;2023-08-30T03:35:43;5.97;;;1.77;;
8532;SDS011;4304;53.876;10.662;2023-08-30T03:38:08;4.30;;;2.03;;
8532;SDS011;4304;53.876;10.662;2023-08-30T03:40:33;4.82;;;2.10;;
8532;SDS011;4304;53.876;10.662;2023-08-30T03:42:59;5.65;;;2.25;;
8532;SDS011;4304;53.876;10.662;2023-08-30T03:45:24;3.60;;;2.03;;
8532;SDS011;4304;53.876;10.662;2023-08-30T03:47:50;4.60;;;1.90;;
8532;SDS011;4304;53.876;10.662;2023-08-30T03:50:15;4.82;;;1.80;;
8532;SDS011;4304;53.876;10.662;2023-08-30T03:52:40;3.58;;;1.70;;
8532;SDS011;4304;53.876;10.662;2023-08-30T03:55:06;4.63;;;1.90;;
8532;SDS011;4304;53.876;10.662;2023-08-30T03:57:32;3.20;;;1.40;;
8532;SDS011;4304;53.876;10.662;2023-08-30T03:59:58;2.55;;;1.58;;
8532;SDS011;4304;53.876;10.662;2023-08-30T04:02:23;3.57;;;1.47;;
8532;SDS011;4304;53.876;10.662;2023-08-30T04:04:48;4.40;;;2.60;;
8532;SDS011;4304;53.876;10.662;2023-08-30T04:07:14;3.83;;;1.42;;
8532;SDS011;4304;53.876;10.662;2023-08-30T04:09:40;3.88;;;1.63;;
8532;SDS011;4304;53.876;10.662;2023-08-30T04:12:05;5.68;;;2.25;;
8532;SDS011;4304;53.876;10.662;2023-08-30T04:14:31;4.53;;;2.03;;
8532;SDS011;4304;53.876;10.662;2023-08-30T04:16:56;4.68;;;1.77;;
8532;SDS011;4304;53.876;10.662;2023-08-30T04:19:22;4.10;;;2.25;;
8532;SDS011;4304;53.876;10.662;2023-08-30T04:21:47;4.65;;;1.98;;
8532;SDS011;4304;53.876;10.662;2023-08-30T04:24:14;4.97;;;2.42;;
8532;SDS011;4304;53.876;10.662;2023-08-30T04:26:40;4.68;;;1.88;;
8532;SDS011;4304;53.876;10.662;2023-08-30T04:29:05;4.10;;;1.85;;
8532;SDS011;4304;53.876;10.662;2023-08-30T04:31:31;3.13;;;1.50;;
8532;SDS011;4304;53.876;10.662;2023-08-30T04:33:56;5.72;;;2.20;;
8532;SDS011;4304;53.876;10.662;2023-08-30T04:36:22;3.45;;;1.73;;
8532;SDS011;4304;53.876;10.662;2023-08-30T04:38:48;4.70;;;2.30;;
8532;SDS011;4304;53.876;10.662;2023-08-30T04:41:13;3.75;;;1.75;;
8532;SDS011;4304;53.876;10.662;2023-08-30T04:43:38;6.20;;;2.33;;
8532;SDS011;4304;53.876;10.662;2023-08-30T04:46:04;4.50;;;3.05;;
8532;SDS011;4304;53.876;10.662;2023-08-30T04:48:29;4.47;;;1.77;;
8532;SDS011;4304;53.876;10.662;2023-08-30T04:51:02;2.60;;;1.33;;
8532;SDS011;4304;53.876;10.662;2023-08-30T04:53:28;4.25;;;2.10;;
8532;SDS011;4304;53.876;10.662;2023-08-30T04:55:54;4.28;;;2.05;;
8532;SDS011;4304;53.876;10.662;2023-08-30T04:58:19;4.28;;;1.98;;
8532;SDS011;4304;53.876;10.662;2023-08-30T05:00:45;5.80;;;1.85;;
8532;SDS011;4304;53.876;10.662;2023-08-30T05:03:10;5.13;;;2.17;;
8532;SDS011;4304;53.876;10.662;2023-08-30T05:05:35;4.75;;;1.92;;
8532;SDS011;4304;53.876;10.662;2023-08-30T05:08:01;5.43;;;1.58;;
8532;SDS011;4304;53.876;10.662;2023-08-30T05:10:27;3.30;;;1.27;;
8532;SDS011;4304;53.876;10.662;2023-08-30T05:12:52;5.18;;;1.77;;
8532;SDS011;4304;53.876;10.662;2023-08-30T05:15:18;5.30;;;2.22;;
8532;SDS011;4304;53.876;10.662;2023-08-30T05:17:43;7.85;;;1.85;;
8532;SDS011;4304;53.876;10.662;2023-08-30T05:20:09;5.65;;;2.58;;
8532;SDS011;4304;53.876;10.662;2023-08-30T05:22:34;4.68;;;2.53;;
8532;SDS011;4304;53.876;10.662;2023-08-30T05:25:00;6.10;;;2.90;;
8532;SDS011;4304;53.876;10.662;2023-08-30T05:27:26;4.22;;;1.90;;
8532;SDS011;4304;53.876;10.662;2023-08-30T05:29:52;14.35;;;3.38;;
8532;SDS011;4304;53.876;10.662;2023-08-30T05:32:17;5.18;;;2.10;;
8532;SDS011;4304;53.876;10.662;2023-08-30T05:34:43;6.75;;;2.75;;
8532;SDS011;4304;53.876;10.662;2023-08-30T05:37:08;9.85;;;2.72;;
8532;SDS011;4304;53.876;10.662;2023-08-30T05:39:34;5.32;;;2.65;;
8532;SDS011;4304;53.876;10.662;2023-08-30T05:42:00;4.97;;;3.10;;
8532;SDS011;4304;53.876;10.662;2023-08-30T05:44:25;5.45;;;2.45;;
8532;SDS011;4304;53.876;10.662;2023-08-30T05:46:51;8.90;;;1.85;;
8532;SDS011;4304;53.876;10.662;2023-08-30T05:49:16;10.57;;;3.33;;
8532;SDS011;4304;53.876;10.662;2023-08-30T05:51:41;5.85;;;3.15;;
8532;SDS011;4304;53.876;10.662;2023-08-30T05:54:07;8.13;;;2.85;;
8532;SDS011;4304;53.876;10.662;2023-08-30T05:56:32;7.32;;;2.92;;
8532;SDS011;4304;53.876;10.662;2023-08-30T05:58:58;6.80;;;3.30;;
8532;SDS011;4304;53.876;10.662;2023-08-30T06:01:23;7.88;;;2.88;;
8532;SDS011;4304;53.876;10.662;2023-08-30T06:03:49;6.63;;;2.80;;
8532;SDS011;4304;53.876;10.662;2023-08-30T06:06:15;7.30;;;2.53;;
8532;SDS011;4304;53.876;10.662;2023-08-30T06:08:41;4.13;;;2.05;;
8532;SDS011;4304;53.876;10.662;2023-08-30T06:11:07;4.80;;;2.42;;
8532;SDS011;4304;53.876;10.662;2023-08-30T06:13:32;4.13;;;1.92;;
8532;SDS011;4304;53.876;10.662;2023-08-30T06:15:57;5.22;;;2.15;;
8532;SDS011;4304;53.876;10.662;2023-08-30T06:18:23;4.78;;;2.35;;
8532;SDS011;4304;53.876;10.662;2023-08-30T06:20:49;4.20;;;2.33;;
8532;SDS011;4304;53.876;10.662;2023-08-30T06:23:14;6.50;;;2.78;;
8532;SDS011;4304;53.876;10.662;2023-08-30T06:25:43;7.35;;;2.88;;
8532;SDS011;4304;53.876;10.662;2023-08-30T06:28:08;5.40;;;2.22;;
8532;SDS011;4304;53.876;10.662;2023-08-30T06:30:34;4.07;;;1.77;;
8532;SDS011;4304;53.876;10.662;2023-08-30T06:32:59;7.35;;;2.05;;
8532;SDS011;4304;53.876;10.662;2023-08-30T06:35:25;10.75;;;2.47;;
8532;SDS011;4304;53.876;10.662;2023-08-30T06:37:51;6.07;;;2.40;;
8532;SDS011;4304;53.876;10.662;2023-08-30T06:40:17;9.70;;;2.92;;
8532;SDS011;4304;53.876;10.662;2023-08-30T06:42:43;5.60;;;3.15;;
8532;SDS011;4304;53.876;10.662;2023-08-30T06:45:08;5.75;;;2.45;;
8532;SDS011;4304;53.876;10.662;2023-08-30T06:47:33;6.10;;;2.92;;
8532;SDS011;4304;53.876;10.662;2023-08-30T06:50:00;7.10;;;3.10;;
8532;SDS011;4304;53.876;10.662;2023-08-30T06:52:25;6.90;;;3.22;;
8532;SDS011;4304;53.876;10.662;2023-08-30T06:54:51;6.22;;;3.05;;
8532;SDS011;4304;53.876;10.662;2023-08-30T06:57:16;4.47;;;2.33;;
8532;SDS011;4304;53.876;10.662;2023-08-30T06:59:42;8.30;;;4.30;;
8532;SDS011;4304;53.876;10.662;2023-08-30T07:02:07;7.78;;;3.22;;
8532;SDS011;4304;53.876;10.662;2023-08-30T07:04:33;6.80;;;3.75;;
8532;SDS011;4304;53.876;10.662;2023-08-30T07:06:58;8.75;;;3.75;;
8532;SDS011;4304;53.876;10.662;2023-08-30T07:09:24;9.05;;;3.55;;
8532;SDS011;4304;53.876;10.662;2023-08-30T07:11:54;7.18;;;3.35;;
8532;SDS011;4304;53.876;10.662;2023-08-30T07:14:20;10.57;;;4.25;;
8532;SDS011;4304;53.876;10.662;2023-08-30T07:16:45;6.43;;;2.85;;
8532;SDS011;4304;53.876;10.662;2023-08-30T07:19:11;10.70;;;3.30;;
8532;SDS011;4304;53.876;10.662;2023-08-30T07:21:36;6.38;;;3.22;;
8532;SDS011;4304;53.876;10.662;2023-08-30T07:24:03;6.07;;;2.97;;
8532;SDS011;4304;53.876;10.662;2023-08-30T07:26:30;7.60;;;3.65;;
8532;SDS011;4304;53.876;10.662;2023-08-30T07:28:55;5.63;;;2.90;;
8532;SDS011;4304;53.876;10.662;2023-08-30T07:31:21;7.45;;;2.90;;
8532;SDS011;4304;53.876;10.662;2023-08-30T07:33:46;5.55;;;2.42;;
8532;SDS011;4304;53.876;10.662;2023-08-30T07:36:12;7.40;;;2.53;;
8532;SDS011;4304;53.876;10.662;2023-08-30T07:38:37;6.88;;;2.80;;
8532;SDS011;4304;53.876;10.662;2023-08-30T07:41:03;5.22;;;2.17;;
8532;SDS011;4304;53.876;10.662;2023-08-30T07:43:29;6.00;;;2.75;;
8532;SDS011;4304;53.876;10.662;2023-08-30T07:45:54;5.35;;;2.45;;
8532;SDS011;4304;53.876;10.662;2023-08-30T07:48:21;4.72;;;2.65;;
8532;SDS011;4304;53.876;10.662;2023-08-30T07:50:47;5.90;;;2.70;;
8532;SDS011;4304;53.876;10.662;2023-08-30T07:53:12;5.22;;;2.53;;
8532;SDS011;4304;53.876;10.662;2023-08-30T07:55:38;6.10;;;2.78;;
8532;SDS011;4304;53.876;10.662;2023-08-30T07:58:03;8.02;;;2.63;;
8532;SDS011;4304;53.876;10.662;2023-08-30T08:00:29;7.55;;;2.78;;
8532;SDS011;4304;53.876;10.662;2023-08-30T08:02:55;5.38;;;2.35;;
8532;SDS011;4304;53.876;10.662;2023-08-30T08:05:23;4.88;;;2.63;;
8532;SDS011;4304;53.876;10.662;2023-08-30T08:07:52;5.53;;;2.25;;
8532;SDS011;4304;53.876;10.662;2023-08-30T08:10:18;6.65;;;2.80;;
8532;SDS011;4304;53.876;10.662;2023-08-30T08:12:44;6.35;;;2.58;;
8532;SDS011;4304;53.876;10.662;2023-08-30T08:15:10;7.03;;;2.95;;
8532;SDS011;4304;53.876;10.662;2023-08-30T08:17:36;5.30;;;2.75;;
8532;SDS011;4304;53.876;10.662;2023-08-30T08:20:01;5.75;;;2.40;;
8532;SDS011;4304;53.876;10.662;2023-08-30T08:22:29;6.10;;;2.45;;
8532;SDS011;4304;53.876;10.662;2023-08-30T08:24:54;8.32;;;2.40;;
8532;SDS011;4304;53.876;10.662;2023-08-30T08:27:21;4.85;;;1.98;;
8532;SDS011;4304;53.876;10.662;2023-08-30T08:29:46;4.13;;;2.05;;
8532;SDS011;4304;53.876;10.662;2023-08-30T08:32:12;5.45;;;2.42;;
8532;SDS011;4304;53.876;10.662;2023-08-30T08:34:38;5.53;;;2.38;;
8532;SDS011;4304;53.876;10.662;2023-08-30T08:37:03;6.70;;;2.40;;
8532;SDS011;4304;53.876;10.662;2023-08-30T08:39:30;5.70;;;2.50;;
8532;SDS011;4304;53.876;10.662;2023-08-30T08:41:55;4.40;;;2.33;;
8532;SDS011;4304;53.876;10.662;2023-08-30T08:44:21;5.55;;;2.15;;
8532;SDS011;4304;53.876;10.662;2023-08-30T08:46:48;4.07;;;2.05;;
8532;SDS011;4304;53.876;10.662;2023-08-30T08:49:16;5.10;;;2.33;;
8532;SDS011;4304;53.876;10.662;2023-08-30T08:51:42;4.60;;;2.25;;
8532;SDS011;4304;53.876;10.662;2023-08-30T08:54:09;3.92;;;1.77;;
8532;SDS011;4304;53.876;10.662;2023-08-30T08:56:35;5.60;;;2.25;;
8532;SDS011;4304;53.876;10.662;2023-08-30T08:59:01;3.67;;;1.63;;
8532;SDS011;4304;53.876;10.662;2023-08-30T09:01:27;4.95;;;1.83;;
8532;SDS011;4304;53.876;10.662;2023-08-30T09:03:53;3.90;;;1.73;;
8532;SDS011;4304;53.876;10.662;2023-08-30T09:06:18;3.17;;;1.45;;
8532;SDS011;4304;53.876;10.662;2023-08-30T09:08:44;4.55;;;1.70;;
8532;SDS011;4304;53.876;10.662;2023-08-30T09:11:10;5.00;;;1.70;;
8532;SDS011;4304;53.876;10.662;2023-08-30T09:13:35;3.30;;;1.60;;
8532;SDS011;4304;53.876;10.662;2023-08-30T09:16:01;3.83;;;1.70;;
8532;SDS011;4304;53.876;10.662;2023-08-30T09:18:27;4.22;;;1.48;;
8532;SDS011;4304;53.876;10.662;2023-08-30T09:21:14;5.25;;;1.33;;
8532;SDS011;4304;53.876;10.662;2023-08-30T09:23:39;4.25;;;1.63;;
8532;SDS011;4304;53.876;10.662;2023-08-30T09:26:05;3.20;;;1.70;;
8532;SDS011;4304;53.876;10.662;2023-08-30T09:28:30;2.72;;;1.08;;
8532;SDS011;4304;53.876;10.662;2023-08-30T09:30:59;4.15;;;1.73;;
8532;SDS011;4304;53.876;10.662;2023-08-30T09:33:31;2.95;;;1.45;;
8532;SDS011;4304;53.876;10.662;2023-08-30T09:35:58;3.63;;;1.80;;
8532;SDS011;4304;53.876;10.662;2023-08-30T09:38:24;4.70;;;1.20;;
8532;SDS011;4304;53.876;10.662;2023-08-30T09:40:50;3.78;;;1.48;;
8532;SDS011;4304;53.876;10.662;2023-08-30T09:43:19;3.50;;;1.30;;
8532;SDS011;4304;53.876;10.662;2023-08-30T09:45:50;4.03;;;1.30;;
8532;SDS011;4304;53.876;10.662;2023-08-30T09:48:16;3.78;;;1.45;;
8532;SDS011;4304;53.876;10.662;2023-08-30T09:50:46;3.15;;;1.20;;
8532;SDS011;4304;53.876;10.662;2023-08-30T09:53:18;3.05;;;1.35;;
8532;SDS011;4304;53.876;10.662;2023-08-30T09:55:48;3.25;;;1.30;;
8532;SDS011;4304;53.876;10.662;2023-08-30T09:58:16;4.25;;;1.38;;
8532;SDS011;4304;53.876;10.662;2023-08-30T10:00:42;3.20;;;1.05;;
8532;SDS011;4304;53.876;10.662;2023-08-30T10:03:08;3.00;;;1.00;;
8532;SDS011;4304;53.876;10.662;2023-08-30T10:05:35;3.63;;;1.50;;
8532;SDS011;4304;53.876;10.662;2023-08-30T10:08:04;4.05;;;1.20;;
8532;SDS011;4304;53.876;10.662;2023-08-30T10:10:32;3.97;;;1.73;;
8532;SDS011;4304;53.876;10.662;2023-08-30T10:13:03;4.63;;;1.70;;
8532;SDS011;4304;53.876;10.662;2023-08-30T10:15:30;3.55;;;1.30;;
8532;SDS011;4304;53.876;10.662;2023-08-30T10:17:59;2.65;;;0.98;;
8532;SDS011;4304;53.876;10.662;2023-08-30T10:20:28;2.40;;;1.00;;
8532;SDS011;4304;53.876;10.662;2023-08-30T10:22:54;3.08;;;1.20;;
8532;SDS011;4304;53.876;10.662;2023-08-30T10:25:22;3.08;;;1.00;;
8532;SDS011;4304;53.876;10.662;2023-08-30T10:27:51;4.07;;;1.05;;
8532;SDS011;4304;53.876;10.662;2023-08-30T10:30:18;7.28;;;1.58;;
8532;SDS011;4304;53.876;10.662;2023-08-30T10:32:45;3.45;;;1.10;;
8532;SDS011;4304;53.876;10.662;2023-08-30T10:35:11;3.10;;;1.20;;
8532;SDS011;4304;53.876;10.662;2023-08-30T10:37:40;4.25;;;1.50;;
8532;SDS011;4304;53.876;10.662;2023-08-30T10:40:06;3.80;;;1.45;;
8532;SDS011;4304;53.876;10.662;2023-08-30T10:42:32;7.07;;;3.25;;
8532;SDS011;4304;53.876;10.662;2023-08-30T10:44:58;2.85;;;0.95;;
8532;SDS011;4304;53.876;10.662;2023-08-30T10:47:28;3.05;;;1.10;;
8532;SDS011;4304;53.876;10.662;2023-08-30T10:49:56;4.88;;;2.08;;
8532;SDS011;4304;53.876;10.662;2023-08-30T10:52:23;2.70;;;1.05;;
8532;SDS011;4304;53.876;10.662;2023-08-30T10:54:49;3.08;;;1.13;;
8532;SDS011;4304;53.876;10.662;2023-08-30T10:57:19;3.33;;;1.23;;
8532;SDS011;4304;53.876;10.662;2023-08-30T11:02:35;3.60;;;1.42;;
8532;SDS011;4304;53.876;10.662;2023-08-30T11:05:02;5.38;;;1.45;;
8532;SDS011;4304;53.876;10.662;2023-08-30T11:07:28;8.73;;;1.67;;
8532;SDS011;4304;53.876;10.662;2023-08-30T11:09:54;3.20;;;1.20;;
8532;SDS011;4304;53.876;10.662;2023-08-30T11:12:20;3.80;;;1.65;;
8532;SDS011;4304;53.876;10.662;2023-08-30T11:14:50;4.65;;;2.08;;
8532;SDS011;4304;53.876;10.662;2023-08-30T11:17:17;3.08;;;1.48;;
8532;SDS011;4304;53.876;10.662;2023-08-30T11:19:42;4.05;;;1.85;;
8532;SDS011;4304;53.876;10.662;2023-08-30T11:22:08;5.65;;;1.48;;
8532;SDS011;4304;53.876;10.662;2023-08-30T11:24:34;10.63;;;1.92;;
8532;SDS011;4304;53.876;10.662;2023-08-30T11:26:59;8.30;;;2.20;;
8532;SDS011;4304;53.876;10.662;2023-08-30T11:29:26;4.25;;;1.80;;
8532;SDS011;4304;53.876;10.662;2023-08-30T11:31:52;3.85;;;1.98;;
8532;SDS011;4304;53.876;10.662;2023-08-30T11:34:19;4.95;;;2.05;;
8532;SDS011;4304;53.876;10.662;2023-08-30T11:36:47;5.32;;;2.28;;
8532;SDS011;4304;53.876;10.662;2023-08-30T11:39:13;6.90;;;2.60;;
8532;SDS011;4304;53.876;10.662;2023-08-30T11:41:39;4.95;;;2.42;;
8532;SDS011;4304;53.876;10.662;2023-08-30T11:44:05;7.88;;;2.70;;
8532;SDS011;4304;53.876;10.662;2023-08-30T11:46:30;5.18;;;2.47;;
8532;SDS011;4304;53.876;10.662;2023-08-30T11:48:57;5.63;;;2.45;;
8532;SDS011;4304;53.876;10.662;2023-08-30T11:51:22;5.32;;;2.55;;
8532;SDS011;4304;53.876;10.662;2023-08-30T11:53:48;6.65;;;2.67;;
8532;SDS011;4304;53.876;10.662;2023-08-30T11:56:14;4.85;;;2.35;;
8532;SDS011;4304;53.876;10.662;2023-08-30T11:58:41;4.50;;;2.38;;
8532;SDS011;4304;53.876;10.662;2023-08-30T12:01:08;5.78;;;3.08;;
8532;SDS011;4304;53.876;10.662;2023-08-30T12:03:34;6.68;;;2.50;;
8532;SDS011;4304;53.876;10.662;2023-08-30T12:06:00;5.68;;;3.00;;
8532;SDS011;4304;53.876;10.662;2023-08-30T12:08:27;8.82;;;3.30;;
8532;SDS011;4304;53.876;10.662;2023-08-30T12:10:56;6.18;;;2.97;;
8532;SDS011;4304;53.876;10.662;2023-08-30T12:13:26;5.05;;;2.58;;
8532;SDS011;4304;53.876;10.662;2023-08-30T12:15:53;6.07;;;2.25;;
8532;SDS011;4304;53.876;10.662;2023-08-30T12:18:23;5.50;;;3.28;;
8532;SDS011;4304;53.876;10.662;2023-08-30T12:20:55;6.10;;;3.50;;
8532;SDS011;4304;53.876;10.662;2023-08-30T12:23:23;5.20;;;2.28;;
8532;SDS011;4304;53.876;10.662;2023-08-30T12:25:58;4.82;;;2.47;;
8532;SDS011;4304;53.876;10.662;2023-08-30T12:28:28;5.60;;;2.45;;
8532;SDS011;4304;53.876;10.662;2023-08-30T12:30:55;5.35;;;2.53;;
8532;SDS011;4304;53.876;10.662;2023-08-30T12:33:21;5.78;;;3.28;;
8532;SDS011;4304;53.876;10.662;2023-08-30T12:35:46;6.47;;;3.30;;
8532;SDS011;4304;53.876;10.662;2023-08-30T12:38:12;11.13;;;2.88;;
8532;SDS011;4304;53.876;10.662;2023-08-30T12:40:42;4.28;;;2.33;;
8532;SDS011;4304;53.876;10.662;2023-08-30T12:43:07;5.53;;;2.70;;
8532;SDS011;4304;53.876;10.662;2023-08-30T12:45:33;7.10;;;2.50;;
8532;SDS011;4304;53.876;10.662;2023-08-30T12:47:58;4.78;;;1.88;;
8532;SDS011;4304;53.876;10.662;2023-08-30T12:50:24;4.13;;;2.08;;
8532;SDS011;4304;53.876;10.662;2023-08-30T12:52:49;4.35;;;1.95;;
8532;SDS011;4304;53.876;10.662;2023-08-30T12:55:15;3.83;;;1.83;;
8532;SDS011;4304;53.876;10.662;2023-08-30T12:57:42;5.93;;;2.17;;
8532;SDS011;4304;53.876;10.662;2023-08-30T13:00:09;4.55;;;1.73;;
8532;SDS011;4304;53.876;10.662;2023-08-30T13:02:35;4.68;;;2.20;;
8532;SDS011;4304;53.876;10.662;2023-08-30T13:05:00;6.72;;;2.33;;
8532;SDS011;4304;53.876;10.662;2023-08-30T13:07:26;4.90;;;2.35;;
8532;SDS011;4304;53.876;10.662;2023-08-30T13:09:51;4.97;;;1.83;;
8532;SDS011;4304;53.876;10.662;2023-08-30T13:12:16;4.72;;;2.22;;
8532;SDS011;4304;53.876;10.662;2023-08-30T13:14:42;4.32;;;2.10;;
8532;SDS011;4304;53.876;10.662;2023-08-30T13:17:07;3.72;;;1.88;;
8532;SDS011;4304;53.876;10.662;2023-08-30T13:19:32;4.55;;;2.00;;
8532;SDS011;4304;53.876;10.662;2023-08-30T13:21:58;3.45;;;1.25;;
8532;SDS011;4304;53.876;10.662;2023-08-30T13:24:23;5.30;;;2.03;;
8532;SDS011;4304;53.876;10.662;2023-08-30T13:26:48;5.55;;;2.03;;
8532;SDS011;4304;53.876;10.662;2023-08-30T13:29:14;4.57;;;2.00;;
8532;SDS011;4304;53.876;10.662;2023-08-30T13:31:40;4.00;;;2.00;;
8532;SDS011;4304;53.876;10.662;2023-08-30T13:34:05;4.55;;;2.08;;
8532;SDS011;4304;53.876;10.662;2023-08-30T13:36:31;4.30;;;1.95;;
8532;SDS011;4304;53.876;10.662;2023-08-30T13:38:56;4.40;;;1.60;;
8532;SDS011;4304;53.876;10.662;2023-08-30T13:41:21;2.53;;;1.17;;
8532;SDS011;4304;53.876;10.662;2023-08-30T13:43:47;2.90;;;1.20;;
8532;SDS011;4304;53.876;10.662;2023-08-30T13:46:12;3.63;;;1.50;;
8532;SDS011;4304;53.876;10.662;2023-08-30T13:48:37;4.93;;;1.50;;
8532;SDS011;4304;53.876;10.662;2023-08-30T13:51:03;3.35;;;1.48;;
8532;SDS011;4304;53.876;10.662;2023-08-30T13:53:28;4.47;;;1.77;;
8532;SDS011;4304;53.876;10.662;2023-08-30T13:55:54;3.88;;;1.70;;
8532;SDS011;4304;53.876;10.662;2023-08-30T13:58:19;4.65;;;1.80;;
8532;SDS011;4304;53.876;10.662;2023-08-30T14:00:44;3.67;;;1.52;;
8532;SDS011;4304;53.876;10.662;2023-08-30T14:03:10;4.07;;;1.88;;
8532;SDS011;4304;53.876;10.662;2023-08-30T14:05:36;4.07;;;1.92;;
8532;SDS011;4304;53.876;10.662;2023-08-30T14:08:05;5.15;;;2.05;;
8532;SDS011;4304;53.876;10.662;2023-08-30T14:10:31;4.28;;;1.83;;
8532;SDS011;4304;53.876;10.662;2023-08-30T14:12:56;7.03;;;2.08;;
8532;SDS011;4304;53.876;10.662;2023-08-30T14:15:22;5.93;;;1.60;;
8532;SDS011;4304;53.876;10.662;2023-08-30T14:17:47;4.20;;;1.90;;
8532;SDS011;4304;53.876;10.662;2023-08-30T14:20:13;3.95;;;1.55;;
8532;SDS011;4304;53.876;10.662;2023-08-30T14:22:38;5.63;;;1.95;;
8532;SDS011;4304;53.876;10.662;2023-08-30T14:25:03;7.65;;;2.00;;
8532;SDS011;4304;53.876;10.662;2023-08-30T14:27:29;4.78;;;1.83;;
8532;SDS011;4304;53.876;10.662;2023-08-30T14:29:55;4.25;;;1.83;;
8532;SDS011;4304;53.876;10.662;2023-08-30T14:32:21;5.90;;;1.75;;
8532;SDS011;4304;53.876;10.662;2023-08-30T14:34:46;5.20;;;1.45;;
8532;SDS011;4304;53.876;10.662;2023-08-30T14:37:11;6.32;;;1.77;;
8532;SDS011;4304;53.876;10.662;2023-08-30T14:39:37;3.97;;;1.50;;
8532;SDS011;4304;53.876;10.662;2023-08-30T14:42:02;3.75;;;1.23;;
8532;SDS011;4304;53.876;10.662;2023-08-30T14:44:27;3.17;;;1.35;;
8532;SDS011;4304;53.876;10.662;2023-08-30T14:46:53;4.07;;;1.67;;
8532;SDS011;4304;53.876;10.662;2023-08-30T14:49:18;2.92;;;1.38;;
8532;SDS011;4304;53.876;10.662;2023-08-30T14:51:44;4.18;;;1.70;;
8532;SDS011;4304;53.876;10.662;2023-08-30T14:54:09;3.92;;;1.42;;
8532;SDS011;4304;53.876;10.662;2023-08-30T14:56:35;3.45;;;1.20;;
8532;SDS011;4304;53.876;10.662;2023-08-30T14:59:00;4.05;;;1.48;;
8532;SDS011;4304;53.876;10.662;2023-08-30T15:01:25;12.38;;;1.77;;
8532;SDS011;4304;53.876;10.662;2023-08-30T15:03:50;8.65;;;1.85;;
8532;SDS011;4304;53.876;10.662;2023-08-30T15:06:16;6.13;;;2.30;;